Hallowell, Kansas
Current Conditions -  °F | °C
As of 8:55 PM on Friday 21 Nov 2014 (Local Time) from KPTS Reporting Station
Overcast Overcast  
Wind Chill: 52°   Ceiling: 1100
Heat Index: 52°   Visibility: 7mi
Dew Point: 49°   Wind: 9mph
Humidity: 91%   Direction: 160°SSE
Pressure: 30.09"   Gusts: NA
Location:  37.1637°N, 94.898°W
Report Text: KPTS 220255Z AUTO 16008KT 7SM OVC011 11/10 A3009 RMK AO2 T01120097
Loading
Personal Weather Stations






























Interactive Weather Map New forecast layout! Learn more

10-Day Weather Forecast

Advertisements
Track Severe Weather on mobile